sensor_id;sensor_type;location;lat;lon;timestamp;pressure;altitude;pressure_sealevel;temperature
45850;BMP180;10739;52.198;20.908;2022-09-27T00:00:59;99075.00;;;15.20
45850;BMP180;10739;52.198;20.908;2022-09-27T00:03:26;99081.00;;;15.40
45850;BMP180;10739;52.198;20.908;2022-09-27T00:06:06;99078.00;;;15.10
45850;BMP180;10739;52.198;20.908;2022-09-27T00:08:35;99070.00;;;15.40
45850;BMP180;10739;52.198;20.908;2022-09-27T00:11:11;99071.00;;;15.50
45850;BMP180;10739;52.198;20.908;2022-09-27T00:13:38;99068.00;;;15.50
45850;BMP180;10739;52.198;20.908;2022-09-27T00:16:05;99070.00;;;15.40
45850;BMP180;10739;52.198;20.908;2022-09-27T00:18:32;99068.00;;;15.90
45850;BMP180;10739;52.198;20.908;2022-09-27T00:21:11;99062.00;;;15.80
45850;BMP180;10739;52.198;20.908;2022-09-27T00:23:39;99050.00;;;16.00
45850;BMP180;10739;52.198;20.908;2022-09-27T00:26:07;99051.00;;;16.10
45850;BMP180;10739;52.198;20.908;2022-09-27T00:28:34;99055.00;;;15.60
45850;BMP180;10739;52.198;20.908;2022-09-27T00:31:00;99061.00;;;15.30
45850;BMP180;10739;52.198;20.908;2022-09-27T00:33:27;99061.00;;;15.10
45850;BMP180;10739;52.198;20.908;2022-09-27T00:35:53;99050.00;;;15.50
45850;BMP180;10739;52.198;20.908;2022-09-27T00:38:20;99051.00;;;15.60
45850;BMP180;10739;52.198;20.908;2022-09-27T00:40:47;99043.00;;;15.40
45850;BMP180;10739;52.198;20.908;2022-09-27T00:43:21;99034.00;;;15.40
45850;BMP180;10739;52.198;20.908;2022-09-27T00:46:03;99041.00;;;15.60
45850;BMP180;10739;52.198;20.908;2022-09-27T00:48:32;99031.00;;;15.30
45850;BMP180;10739;52.198;20.908;2022-09-27T00:51:03;99022.00;;;15.50
45850;BMP180;10739;52.198;20.908;2022-09-27T00:53:44;99030.00;;;15.60
45850;BMP180;10739;52.198;20.908;2022-09-27T00:56:21;99023.00;;;15.60
45850;BMP180;10739;52.198;20.908;2022-09-27T00:59:08;99026.00;;;15.30
45850;BMP180;10739;52.198;20.908;2022-09-27T01:01:36;99016.00;;;15.60
45850;BMP180;10739;52.198;20.908;2022-09-27T01:04:11;99018.00;;;15.90
45850;BMP180;10739;52.198;20.908;2022-09-27T01:06:37;99008.00;;;16.10
45850;BMP180;10739;52.198;20.908;2022-09-27T01:09:07;99027.00;;;16.00
45850;BMP180;10739;52.198;20.908;2022-09-27T01:30:34;99015.00;;;15.70
45850;BMP180;10739;52.198;20.908;2022-09-27T01:41:41;99013.00;;;15.40
45850;BMP180;10739;52.198;20.908;2022-09-27T01:44:49;99006.00;;;15.50
45850;BMP180;10739;52.198;20.908;2022-09-27T01:47:23;99003.00;;;15.50
45850;BMP180;10739;52.198;20.908;2022-09-27T01:52:29;99007.00;;;15.30
45850;BMP180;10739;52.198;20.908;2022-09-27T01:55:01;99001.00;;;15.30
45850;BMP180;10739;52.198;20.908;2022-09-27T01:57:40;99003.00;;;15.30
45850;BMP180;10739;52.198;20.908;2022-09-27T02:00:11;98992.00;;;15.30
45850;BMP180;10739;52.198;20.908;2022-09-27T02:02:49;98994.00;;;15.30
45850;BMP180;10739;52.198;20.908;2022-09-27T02:05:19;98984.00;;;15.20
45850;BMP180;10739;52.198;20.908;2022-09-27T02:09:09;98991.00;;;15.40
45850;BMP180;10739;52.198;20.908;2022-09-27T02:11:15;98983.00;;;15.20
45850;BMP180;10739;52.198;20.908;2022-09-27T02:14:17;98984.00;;;15.40
45850;BMP180;10739;52.198;20.908;2022-09-27T02:20:11;98980.00;;;15.70
45850;BMP180;10739;52.198;20.908;2022-09-27T02:23:09;98975.00;;;15.50
45850;BMP180;10739;52.198;20.908;2022-09-27T02:28:36;98975.00;;;15.40
45850;BMP180;10739;52.198;20.908;2022-09-27T02:31:03;98977.00;;;15.60
45850;BMP180;10739;52.198;20.908;2022-09-27T02:33:59;98968.00;;;15.50
45850;BMP180;10739;52.198;20.908;2022-09-27T02:36:26;98969.00;;;15.80
45850;BMP180;10739;52.198;20.908;2022-09-27T02:38:53;98971.00;;;15.40
45850;BMP180;10739;52.198;20.908;2022-09-27T02:41:21;98978.00;;;15.60
45850;BMP180;10739;52.198;20.908;2022-09-27T02:43:56;98975.00;;;15.40
45850;BMP180;10739;52.198;20.908;2022-09-27T02:46:44;98968.00;;;15.60
45850;BMP180;10739;52.198;20.908;2022-09-27T02:50:34;98966.00;;;15.10
45850;BMP180;10739;52.198;20.908;2022-09-27T02:58:47;98964.00;;;15.30
45850;BMP180;10739;52.198;20.908;2022-09-27T03:01:35;98965.00;;;15.60
45850;BMP180;10739;52.198;20.908;2022-09-27T03:04:39;98968.00;;;15.30
45850;BMP180;10739;52.198;20.908;2022-09-27T03:07:08;98969.00;;;14.90
45850;BMP180;10739;52.198;20.908;2022-09-27T03:09:50;98962.00;;;14.80
45850;BMP180;10739;52.198;20.908;2022-09-27T03:12:18;98961.00;;;14.90
45850;BMP180;10739;52.198;20.908;2022-09-27T03:14:48;98968.00;;;14.90
45850;BMP180;10739;52.198;20.908;2022-09-27T03:17:14;98968.00;;;14.80
45850;BMP180;10739;52.198;20.908;2022-09-27T03:19:41;98962.00;;;15.00
45850;BMP180;10739;52.198;20.908;2022-09-27T03:22:07;98958.00;;;14.90
45850;BMP180;10739;52.198;20.908;2022-09-27T03:24:33;98956.00;;;14.70
45850;BMP180;10739;52.198;20.908;2022-09-27T03:26:59;98960.00;;;14.70
45850;BMP180;10739;52.198;20.908;2022-09-27T03:29:26;98956.00;;;14.90
45850;BMP180;10739;52.198;20.908;2022-09-27T03:31:52;98950.00;;;15.10
45850;BMP180;10739;52.198;20.908;2022-09-27T03:34:18;98945.00;;;15.00
45850;BMP180;10739;52.198;20.908;2022-09-27T03:36:44;98941.00;;;14.80
45850;BMP180;10739;52.198;20.908;2022-09-27T03:39:10;98936.00;;;14.90
45850;BMP180;10739;52.198;20.908;2022-09-27T03:41:37;98937.00;;;15.20
45850;BMP180;10739;52.198;20.908;2022-09-27T03:44:03;98930.00;;;15.20
45850;BMP180;10739;52.198;20.908;2022-09-27T03:46:29;98943.00;;;14.70
45850;BMP180;10739;52.198;20.908;2022-09-27T03:48:55;98939.00;;;14.50
45850;BMP180;10739;52.198;20.908;2022-09-27T03:51:22;98930.00;;;15.10
45850;BMP180;10739;52.198;20.908;2022-09-27T03:53:48;98934.00;;;15.20
45850;BMP180;10739;52.198;20.908;2022-09-27T03:56:14;98927.00;;;15.20
45850;BMP180;10739;52.198;20.908;2022-09-27T03:58:41;98928.00;;;15.00
45850;BMP180;10739;52.198;20.908;2022-09-27T04:01:08;98921.00;;;15.50
45850;BMP180;10739;52.198;20.908;2022-09-27T04:03:34;98924.00;;;15.40
45850;BMP180;10739;52.198;20.908;2022-09-27T04:06:02;98917.00;;;15.30
45850;BMP180;10739;52.198;20.908;2022-09-27T04:08:29;98919.00;;;15.50
45850;BMP180;10739;52.198;20.908;2022-09-27T04:10:55;98920.00;;;15.70
45850;BMP180;10739;52.198;20.908;2022-09-27T04:13:23;98913.00;;;15.50
45850;BMP180;10739;52.198;20.908;2022-09-27T04:15:49;98907.00;;;15.60
45850;BMP180;10739;52.198;20.908;2022-09-27T04:18:16;98912.00;;;15.80
45850;BMP180;10739;52.198;20.908;2022-09-27T04:20:42;98912.00;;;15.60
45850;BMP180;10739;52.198;20.908;2022-09-27T04:23:08;98904.00;;;15.50
45850;BMP180;10739;52.198;20.908;2022-09-27T04:25:34;98906.00;;;15.90
45850;BMP180;10739;52.198;20.908;2022-09-27T04:28:01;98913.00;;;15.70
45850;BMP180;10739;52.198;20.908;2022-09-27T04:30:28;98919.00;;;15.20
45850;BMP180;10739;52.198;20.908;2022-09-27T04:32:54;98912.00;;;15.50
45850;BMP180;10739;52.198;20.908;2022-09-27T04:35:21;98906.00;;;15.40
45850;BMP180;10739;52.198;20.908;2022-09-27T04:38:05;98906.00;;;15.80
45850;BMP180;10739;52.198;20.908;2022-09-27T04:40:35;98917.00;;;15.30
45850;BMP180;10739;52.198;20.908;2022-09-27T04:43:01;98914.00;;;14.70
45850;BMP180;10739;52.198;20.908;2022-09-27T04:45:29;98912.00;;;15.00
45850;BMP180;10739;52.198;20.908;2022-09-27T04:47:56;98923.00;;;15.10
45850;BMP180;10739;52.198;20.908;2022-09-27T04:50:22;98925.00;;;15.00
45850;BMP180;10739;52.198;20.908;2022-09-27T04:52:52;98929.00;;;15.20
45850;BMP180;10739;52.198;20.908;2022-09-27T04:55:20;98929.00;;;15.10
45850;BMP180;10739;52.198;20.908;2022-09-27T04:57:47;98913.00;;;15.00
45850;BMP180;10739;52.198;20.908;2022-09-27T05:00:14;98916.00;;;15.20
45850;BMP180;10739;52.198;20.908;2022-09-27T05:02:43;98906.00;;;15.30
45850;BMP180;10739;52.198;20.908;2022-09-27T05:05:10;98910.00;;;15.20
45850;BMP180;10739;52.198;20.908;2022-09-27T05:07:37;98914.00;;;15.20
45850;BMP180;10739;52.198;20.908;2022-09-27T05:10:05;98918.00;;;15.00
45850;BMP180;10739;52.198;20.908;2022-09-27T05:12:32;98909.00;;;14.90
45850;BMP180;10739;52.198;20.908;2022-09-27T05:14:59;98907.00;;;14.30
45850;BMP180;10739;52.198;20.908;2022-09-27T05:17:25;98899.00;;;14.30
45850;BMP180;10739;52.198;20.908;2022-09-27T05:19:51;98904.00;;;14.60
45850;BMP180;10739;52.198;20.908;2022-09-27T05:22:17;98908.00;;;14.70
45850;BMP180;10739;52.198;20.908;2022-09-27T05:24:45;98898.00;;;14.70
45850;BMP180;10739;52.198;20.908;2022-09-27T05:27:14;98900.00;;;14.10
45850;BMP180;10739;52.198;20.908;2022-09-27T05:29:44;98890.00;;;14.60
45850;BMP180;10739;52.198;20.908;2022-09-27T05:32:10;98901.00;;;15.00
45850;BMP180;10739;52.198;20.908;2022-09-27T05:34:37;98899.00;;;14.80
45850;BMP180;10739;52.198;20.908;2022-09-27T05:37:03;98890.00;;;14.70
45850;BMP180;10739;52.198;20.908;2022-09-27T05:39:33;98891.00;;;14.70
45850;BMP180;10739;52.198;20.908;2022-09-27T05:41:59;98893.00;;;14.80
45850;BMP180;10739;52.198;20.908;2022-09-27T05:44:25;98893.00;;;14.90
45850;BMP180;10739;52.198;20.908;2022-09-27T05:46:51;98903.00;;;14.80
45850;BMP180;10739;52.198;20.908;2022-09-27T05:49:17;98905.00;;;15.00
45850;BMP180;10739;52.198;20.908;2022-09-27T05:51:45;98912.00;;;14.70
45850;BMP180;10739;52.198;20.908;2022-09-27T05:54:12;98906.00;;;14.10
45850;BMP180;10739;52.198;20.908;2022-09-27T05:56:38;98911.00;;;14.50
45850;BMP180;10739;52.198;20.908;2022-09-27T05:59:05;98901.00;;;14.60
45850;BMP180;10739;52.198;20.908;2022-09-27T06:01:31;98910.00;;;13.80
45850;BMP180;10739;52.198;20.908;2022-09-27T06:03:57;98925.00;;;14.60
45850;BMP180;10739;52.198;20.908;2022-09-27T06:06:23;98921.00;;;14.60
45850;BMP180;10739;52.198;20.908;2022-09-27T06:08:50;98912.00;;;14.60
45850;BMP180;10739;52.198;20.908;2022-09-27T06:11:16;98902.00;;;14.80
45850;BMP180;10739;52.198;20.908;2022-09-27T06:13:42;98895.00;;;14.90
45850;BMP180;10739;52.198;20.908;2022-09-27T06:16:10;98901.00;;;15.10
45850;BMP180;10739;52.198;20.908;2022-09-27T06:18:36;98889.00;;;15.20
45850;BMP180;10739;52.198;20.908;2022-09-27T06:21:05;98893.00;;;15.20
45850;BMP180;10739;52.198;20.908;2022-09-27T06:23:31;98894.00;;;15.10
45850;BMP180;10739;52.198;20.908;2022-09-27T06:26:05;98901.00;;;15.20
45850;BMP180;10739;52.198;20.908;2022-09-27T06:28:31;98899.00;;;14.90
45850;BMP180;10739;52.198;20.908;2022-09-27T06:31:00;98901.00;;;15.10
45850;BMP180;10739;52.198;20.908;2022-09-27T06:33:27;98896.00;;;15.00
45850;BMP180;10739;52.198;20.908;2022-09-27T06:35:53;98891.00;;;14.90
45850;BMP180;10739;52.198;20.908;2022-09-27T06:38:19;98891.00;;;14.60
45850;BMP180;10739;52.198;20.908;2022-09-27T06:40:51;98881.00;;;14.80
45850;BMP180;10739;52.198;20.908;2022-09-27T06:43:19;98882.00;;;14.80
45850;BMP180;10739;52.198;20.908;2022-09-27T06:45:46;98877.00;;;14.40
45850;BMP180;10739;52.198;20.908;2022-09-27T06:48:14;98871.00;;;14.10
45850;BMP180;10739;52.198;20.908;2022-09-27T06:50:44;98882.00;;;14.20
45850;BMP180;10739;52.198;20.908;2022-09-27T06:53:14;98892.00;;;14.40
45850;BMP180;10739;52.198;20.908;2022-09-27T06:55:42;98899.00;;;14.30
45850;BMP180;10739;52.198;20.908;2022-09-27T06:58:11;98901.00;;;14.20
45850;BMP180;10739;52.198;20.908;2022-09-27T07:00:55;98906.00;;;14.50
45850;BMP180;10739;52.198;20.908;2022-09-27T07:03:23;98918.00;;;14.80
45850;BMP180;10739;52.198;20.908;2022-09-27T07:05:58;98919.00;;;14.50
45850;BMP180;10739;52.198;20.908;2022-09-27T07:08:25;98912.00;;;14.90
45850;BMP180;10739;52.198;20.908;2022-09-27T07:10:59;98920.00;;;15.00
45850;BMP180;10739;52.198;20.908;2022-09-27T07:13:25;98924.00;;;14.70
45850;BMP180;10739;52.198;20.908;2022-09-27T07:15:54;98914.00;;;14.90
45850;BMP180;10739;52.198;20.908;2022-09-27T07:18:20;98916.00;;;15.00
45850;BMP180;10739;52.198;20.908;2022-09-27T07:20:46;98912.00;;;14.20
45850;BMP180;10739;52.198;20.908;2022-09-27T07:23:13;98918.00;;;14.40
45850;BMP180;10739;52.198;20.908;2022-09-27T07:25:40;98916.00;;;14.40
45850;BMP180;10739;52.198;20.908;2022-09-27T07:28:14;98924.00;;;14.90
45850;BMP180;10739;52.198;20.908;2022-09-27T07:30:40;98923.00;;;14.90
45850;BMP180;10739;52.198;20.908;2022-09-27T07:33:07;98920.00;;;15.20
45850;BMP180;10739;52.198;20.908;2022-09-27T07:35:40;98926.00;;;15.10
45850;BMP180;10739;52.198;20.908;2022-09-27T07:38:06;98911.00;;;14.80
45850;BMP180;10739;52.198;20.908;2022-09-27T07:40:35;98921.00;;;14.80
45850;BMP180;10739;52.198;20.908;2022-09-27T07:43:02;98901.00;;;14.70
45850;BMP180;10739;52.198;20.908;2022-09-27T07:45:28;98916.00;;;15.10
45850;BMP180;10739;52.198;20.908;2022-09-27T07:47:55;98898.00;;;15.10
45850;BMP180;10739;52.198;20.908;2022-09-27T07:50:21;98895.00;;;14.90
45850;BMP180;10739;52.198;20.908;2022-09-27T07:52:48;98901.00;;;15.30
45850;BMP180;10739;52.198;20.908;2022-09-27T07:55:17;98907.00;;;14.70
45850;BMP180;10739;52.198;20.908;2022-09-27T07:57:44;98900.00;;;14.80
45850;BMP180;10739;52.198;20.908;2022-09-27T08:00:15;98908.00;;;14.30
45850;BMP180;10739;52.198;20.908;2022-09-27T08:02:42;98918.00;;;14.70
45850;BMP180;10739;52.198;20.908;2022-09-27T08:05:10;98909.00;;;15.10
45850;BMP180;10739;52.198;20.908;2022-09-27T08:07:38;98911.00;;;15.00
45850;BMP180;10739;52.198;20.908;2022-09-27T08:10:07;98901.00;;;15.10
45850;BMP180;10739;52.198;20.908;2022-09-27T08:12:35;98914.00;;;15.20
45850;BMP180;10739;52.198;20.908;2022-09-27T08:15:03;98909.00;;;15.50
45850;BMP180;10739;52.198;20.908;2022-09-27T08:17:31;98912.00;;;15.20
45850;BMP180;10739;52.198;20.908;2022-09-27T08:19:57;98930.00;;;15.30
45850;BMP180;10739;52.198;20.908;2022-09-27T08:22:24;98920.00;;;15.30
45850;BMP180;10739;52.198;20.908;2022-09-27T08:24:50;98921.00;;;15.00
45850;BMP180;10739;52.198;20.908;2022-09-27T08:27:16;98921.00;;;15.70
45850;BMP180;10739;52.198;20.908;2022-09-27T08:29:43;98923.00;;;15.60
45850;BMP180;10739;52.198;20.908;2022-09-27T08:32:10;98926.00;;;15.10
45850;BMP180;10739;52.198;20.908;2022-09-27T08:34:37;98924.00;;;15.20
45850;BMP180;10739;52.198;20.908;2022-09-27T08:37:04;98913.00;;;15.30
45850;BMP180;10739;52.198;20.908;2022-09-27T08:39:30;98926.00;;;15.80
45850;BMP180;10739;52.198;20.908;2022-09-27T08:47:11;98925.00;;;15.60
45850;BMP180;10739;52.198;20.908;2022-09-27T08:50:00;98926.00;;;15.40
45850;BMP180;10739;52.198;20.908;2022-09-27T08:52:42;98914.00;;;15.70
45850;BMP180;10739;52.198;20.908;2022-09-27T08:58:31;98926.00;;;15.60
45850;BMP180;10739;52.198;20.908;2022-09-27T09:01:01;98929.00;;;15.90
45850;BMP180;10739;52.198;20.908;2022-09-27T09:03:42;98918.00;;;16.00
45850;BMP180;10739;52.198;20.908;2022-09-27T09:11:37;98915.00;;;15.80
45850;BMP180;10739;52.198;20.908;2022-09-27T09:21:32;98900.00;;;16.00
45850;BMP180;10739;52.198;20.908;2022-09-27T09:25:11;98906.00;;;15.90
45850;BMP180;10739;52.198;20.908;2022-09-27T09:28:06;98902.00;;;15.90
45850;BMP180;10739;52.198;20.908;2022-09-27T09:31:41;98893.00;;;15.60
45850;BMP180;10739;52.198;20.908;2022-09-27T09:34:39;98890.00;;;15.90
45850;BMP180;10739;52.198;20.908;2022-09-27T09:37:38;98887.00;;;15.90
45850;BMP180;10739;52.198;20.908;2022-09-27T09:41:14;98899.00;;;16.20
45850;BMP180;10739;52.198;20.908;2022-09-27T09:44:26;98894.00;;;16.20
45850;BMP180;10739;52.198;20.908;2022-09-27T09:50:25;98890.00;;;16.00
45850;BMP180;10739;52.198;20.908;2022-09-27T09:56:39;98901.00;;;16.60
45850;BMP180;10739;52.198;20.908;2022-09-27T09:59:40;98895.00;;;16.50
45850;BMP180;10739;52.198;20.908;2022-09-27T10:02:38;98897.00;;;16.00
45850;BMP180;10739;52.198;20.908;2022-09-27T10:05:26;98891.00;;;16.20
45850;BMP180;10739;52.198;20.908;2022-09-27T10:08:20;98887.00;;;16.50
45850;BMP180;10739;52.198;20.908;2022-09-27T10:11:41;98878.00;;;16.30
45850;BMP180;10739;52.198;20.908;2022-09-27T10:14:27;98868.00;;;16.40
45850;BMP180;10739;52.198;20.908;2022-09-27T10:17:19;98872.00;;;16.00
45850;BMP180;10739;52.198;20.908;2022-09-27T10:20:07;98865.00;;;16.80
45850;BMP180;10739;52.198;20.908;2022-09-27T10:23:15;98869.00;;;16.30
45850;BMP180;10739;52.198;20.908;2022-09-27T10:26:04;98866.00;;;16.20
45850;BMP180;10739;52.198;20.908;2022-09-27T10:28:50;98870.00;;;15.90
45850;BMP180;10739;52.198;20.908;2022-09-27T10:31:37;98879.00;;;16.00
45850;BMP180;10739;52.198;20.908;2022-09-27T10:34:35;98875.00;;;16.20
45850;BMP180;10739;52.198;20.908;2022-09-27T10:39:39;98877.00;;;15.70
45850;BMP180;10739;52.198;20.908;2022-09-27T10:42:36;98861.00;;;15.90
45850;BMP180;10739;52.198;20.908;2022-09-27T10:45:29;98867.00;;;16.50
45850;BMP180;10739;52.198;20.908;2022-09-27T10:47:58;98863.00;;;15.80
45850;BMP180;10739;52.198;20.908;2022-09-27T10:50:30;98857.00;;;15.80
45850;BMP180;10739;52.198;20.908;2022-09-27T10:53:13;98854.00;;;16.20
45850;BMP180;10739;52.198;20.908;2022-09-27T10:55:42;98850.00;;;16.30
45850;BMP180;10739;52.198;20.908;2022-09-27T10:58:34;98852.00;;;16.80
45850;BMP180;10739;52.198;20.908;2022-09-27T11:01:06;98854.00;;;16.60
45850;BMP180;10739;52.198;20.908;2022-09-27T11:03:44;98847.00;;;16.60
45850;BMP180;10739;52.198;20.908;2022-09-27T11:08:51;98844.00;;;16.60
45850;BMP180;10739;52.198;20.908;2022-09-27T11:11:26;98842.00;;;16.80
45850;BMP180;10739;52.198;20.908;2022-09-27T11:14:21;98838.00;;;16.50
45850;BMP180;10739;52.198;20.908;2022-09-27T11:17:14;98831.00;;;16.40
45850;BMP180;10739;52.198;20.908;2022-09-27T11:22:39;98835.00;;;16.70
45850;BMP180;10739;52.198;20.908;2022-09-27T11:25:37;98824.00;;;17.10
45850;BMP180;10739;52.198;20.908;2022-09-27T11:34:27;98813.00;;;17.40
45850;BMP180;10739;52.198;20.908;2022-09-27T11:51:36;98800.00;;;17.30
45850;BMP180;10739;52.198;20.908;2022-09-27T11:57:24;98805.00;;;17.50
45850;BMP180;10739;52.198;20.908;2022-09-27T12:00:43;98801.00;;;17.10
45850;BMP180;10739;52.198;20.908;2022-09-27T12:06:16;98807.00;;;17.50
45850;BMP180;10739;52.198;20.908;2022-09-27T12:08:55;98798.00;;;17.70
45850;BMP180;10739;52.198;20.908;2022-09-27T12:11:35;98798.00;;;17.50
45850;BMP180;10739;52.198;20.908;2022-09-27T12:16:58;98796.00;;;17.80
45850;BMP180;10739;52.198;20.908;2022-09-27T12:19:33;98785.00;;;17.80
45850;BMP180;10739;52.198;20.908;2022-09-27T12:22:10;98796.00;;;17.40
45850;BMP180;10739;52.198;20.908;2022-09-27T12:24:38;98804.00;;;18.20
45850;BMP180;10739;52.198;20.908;2022-09-27T12:27:53;98787.00;;;18.40
45850;BMP180;10739;52.198;20.908;2022-09-27T12:30:19;98774.00;;;17.80
45850;BMP180;10739;52.198;20.908;2022-09-27T12:33:03;98775.00;;;18.00
45850;BMP180;10739;52.198;20.908;2022-09-27T12:35:40;98773.00;;;18.20
45850;BMP180;10739;52.198;20.908;2022-09-27T12:38:32;98772.00;;;18.10
45850;BMP180;10739;52.198;20.908;2022-09-27T12:41:04;98767.00;;;18.60
45850;BMP180;10739;52.198;20.908;2022-09-27T12:43:31;98763.00;;;18.30
45850;BMP180;10739;52.198;20.908;2022-09-27T12:49:09;98775.00;;;18.10
45850;BMP180;10739;52.198;20.908;2022-09-27T12:51:58;98772.00;;;18.30
45850;BMP180;10739;52.198;20.908;2022-09-27T13:01:41;98756.00;;;18.50
45850;BMP180;10739;52.198;20.908;2022-09-27T13:11:36;98751.00;;;18.40
45850;BMP180;10739;52.198;20.908;2022-09-27T13:14:19;98754.00;;;18.10
45850;BMP180;10739;52.198;20.908;2022-09-27T13:16:47;98748.00;;;18.40
45850;BMP180;10739;52.198;20.908;2022-09-27T13:21:59;98738.00;;;19.10
45850;BMP180;10739;52.198;20.908;2022-09-27T13:35:38;98719.00;;;19.40
45850;BMP180;10739;52.198;20.908;2022-09-27T13:38:20;98712.00;;;18.90
45850;BMP180;10739;52.198;20.908;2022-09-27T13:40:47;98717.00;;;19.20
45850;BMP180;10739;52.198;20.908;2022-09-27T13:43:34;98712.00;;;19.50
45850;BMP180;10739;52.198;20.908;2022-09-27T13:46:14;98718.00;;;19.10
45850;BMP180;10739;52.198;20.908;2022-09-27T13:51:49;98714.00;;;19.40
45850;BMP180;10739;52.198;20.908;2022-09-27T13:54:50;98714.00;;;19.80
45850;BMP180;10739;52.198;20.908;2022-09-27T13:57:44;98707.00;;;19.00
45850;BMP180;10739;52.198;20.908;2022-09-27T14:00:23;98709.00;;;19.50
45850;BMP180;10739;52.198;20.908;2022-09-27T14:05:56;98710.00;;;18.50
45850;BMP180;10739;52.198;20.908;2022-09-27T14:08:32;98697.00;;;19.10
45850;BMP180;10739;52.198;20.908;2022-09-27T14:11:03;98704.00;;;19.00
45850;BMP180;10739;52.198;20.908;2022-09-27T14:13:31;98700.00;;;19.10
45850;BMP180;10739;52.198;20.908;2022-09-27T14:16:02;98695.00;;;19.60
45850;BMP180;10739;52.198;20.908;2022-09-27T14:18:29;98689.00;;;18.90
45850;BMP180;10739;52.198;20.908;2022-09-27T14:21:19;98694.00;;;19.40
45850;BMP180;10739;52.198;20.908;2022-09-27T14:23:47;98700.00;;;19.60
45850;BMP180;10739;52.198;20.908;2022-09-27T14:26:23;98694.00;;;18.90
45850;BMP180;10739;52.198;20.908;2022-09-27T14:28:50;98694.00;;;19.50
45850;BMP180;10739;52.198;20.908;2022-09-27T14:31:20;98695.00;;;18.80
45850;BMP180;10739;52.198;20.908;2022-09-27T14:33:49;98697.00;;;19.40
45850;BMP180;10739;52.198;20.908;2022-09-27T14:36:32;98696.00;;;18.90
45850;BMP180;10739;52.198;20.908;2022-09-27T14:39:32;98695.00;;;18.80
45850;BMP180;10739;52.198;20.908;2022-09-27T14:42:04;98697.00;;;18.80
45850;BMP180;10739;52.198;20.908;2022-09-27T14:44:31;98699.00;;;18.60
45850;BMP180;10739;52.198;20.908;2022-09-27T14:47:23;98696.00;;;18.30
45850;BMP180;10739;52.198;20.908;2022-09-27T14:49:59;98693.00;;;18.30
45850;BMP180;10739;52.198;20.908;2022-09-27T14:52:32;98690.00;;;18.40
45850;BMP180;10739;52.198;20.908;2022-09-27T14:55:19;98679.00;;;18.60
45850;BMP180;10739;52.198;20.908;2022-09-27T14:57:52;98687.00;;;18.00
45850;BMP180;10739;52.198;20.908;2022-09-27T15:02:53;98685.00;;;18.40
45850;BMP180;10739;52.198;20.908;2022-09-27T15:05:30;98692.00;;;18.40
45850;BMP180;10739;52.198;20.908;2022-09-27T15:08:01;98697.00;;;18.70
45850;BMP180;10739;52.198;20.908;2022-09-27T15:10:33;98685.00;;;18.60
45850;BMP180;10739;52.198;20.908;2022-09-27T15:13:01;98694.00;;;18.70
45850;BMP180;10739;52.198;20.908;2022-09-27T15:15:34;98696.00;;;18.60
45850;BMP180;10739;52.198;20.908;2022-09-27T15:18:02;98691.00;;;18.00
45850;BMP180;10739;52.198;20.908;2022-09-27T15:20:32;98687.00;;;18.10
45850;BMP180;10739;52.198;20.908;2022-09-27T15:23:01;98689.00;;;18.40
45850;BMP180;10739;52.198;20.908;2022-09-27T15:25:40;98688.00;;;17.90
45850;BMP180;10739;52.198;20.908;2022-09-27T15:30:52;98681.00;;;18.20
45850;BMP180;10739;52.198;20.908;2022-09-27T15:33:24;98677.00;;;18.70
45850;BMP180;10739;52.198;20.908;2022-09-27T15:35:58;98681.00;;;18.80
45850;BMP180;10739;52.198;20.908;2022-09-27T15:38:38;98674.00;;;18.30
45850;BMP180;10739;52.198;20.908;2022-09-27T15:41:30;98672.00;;;17.70
45850;BMP180;10739;52.198;20.908;2022-09-27T15:44:51;98669.00;;;18.30
45850;BMP180;10739;52.198;20.908;2022-09-27T15:52:43;98650.00;;;18.10
45850;BMP180;10739;52.198;20.908;2022-09-27T15:55:14;98644.00;;;17.90
45850;BMP180;10739;52.198;20.908;2022-09-27T15:57:43;98655.00;;;18.70
45850;BMP180;10739;52.198;20.908;2022-09-27T16:00:15;98653.00;;;18.50
45850;BMP180;10739;52.198;20.908;2022-09-27T16:02:41;98655.00;;;17.60
45850;BMP180;10739;52.198;20.908;2022-09-27T16:05:08;98652.00;;;17.40
45850;BMP180;10739;52.198;20.908;2022-09-27T16:07:34;98646.00;;;17.70
45850;BMP180;10739;52.198;20.908;2022-09-27T16:10:01;98630.00;;;17.90
45850;BMP180;10739;52.198;20.908;2022-09-27T16:12:27;98649.00;;;17.40
45850;BMP180;10739;52.198;20.908;2022-09-27T16:14:56;98645.00;;;17.50
45850;BMP180;10739;52.198;20.908;2022-09-27T16:17:22;98667.00;;;17.60
45850;BMP180;10739;52.198;20.908;2022-09-27T16:19:48;98664.00;;;17.50
45850;BMP180;10739;52.198;20.908;2022-09-27T16:22:15;98670.00;;;17.30
45850;BMP180;10739;52.198;20.908;2022-09-27T16:24:41;98670.00;;;17.60
45850;BMP180;10739;52.198;20.908;2022-09-27T16:27:07;98675.00;;;17.30
45850;BMP180;10739;52.198;20.908;2022-09-27T16:29:33;98667.00;;;17.20
45850;BMP180;10739;52.198;20.908;2022-09-27T16:31:59;98679.00;;;17.00
45850;BMP180;10739;52.198;20.908;2022-09-27T16:34:26;98676.00;;;17.30
45850;BMP180;10739;52.198;20.908;2022-09-27T16:36:53;98670.00;;;16.90
45850;BMP180;10739;52.198;20.908;2022-09-27T16:39:19;98680.00;;;16.90
45850;BMP180;10739;52.198;20.908;2022-09-27T16:41:45;98678.00;;;17.30
45850;BMP180;10739;52.198;20.908;2022-09-27T16:44:13;98681.00;;;17.50
45850;BMP180;10739;52.198;20.908;2022-09-27T16:46:43;98663.00;;;17.30
45850;BMP180;10739;52.198;20.908;2022-09-27T16:49:12;98676.00;;;17.70
45850;BMP180;10739;52.198;20.908;2022-09-27T16:51:58;98660.00;;;17.30
45850;BMP180;10739;52.198;20.908;2022-09-27T16:54:28;98667.00;;;17.00
45850;BMP180;10739;52.198;20.908;2022-09-27T16:56:57;98669.00;;;16.90
45850;BMP180;10739;52.198;20.908;2022-09-27T16:59:24;98677.00;;;16.80
45850;BMP180;10739;52.198;20.908;2022-09-27T17:01:51;98672.00;;;16.90
45850;BMP180;10739;52.198;20.908;2022-09-27T17:04:18;98670.00;;;16.60
45850;BMP180;10739;52.198;20.908;2022-09-27T17:06:44;98674.00;;;16.60
45850;BMP180;10739;52.198;20.908;2022-09-27T17:09:11;98682.00;;;16.60
45850;BMP180;10739;52.198;20.908;2022-09-27T17:11:37;98671.00;;;16.90